Maxeyville, Colorado
Current Conditions -  °F | °C
As of 4:50 AM on Monday 22 Dec 2014 (Local Time) from KRCV Reporting Station
Overcast Overcast  
Wind Chill: 28°   Ceiling: 6500
Heat Index: 37°   Visibility: 10mi
Dew Point: 25°   Wind: 14mph
Humidity: 62%   Direction: 270°W
Pressure: 29.77"   Gusts: NA
Location:  37.5196°N, 106.176°W
Report Text: KRCV 221150Z AUTO 27012KT 10SM SCT050 BKN065 OVC080 03/M04 A2977 RMK AO2 T00271039 10045 20025
Loading
Personal Weather Stations






























Interactive Weather Map New forecast layout! Learn more

10-Day Weather Forecast

Advertisements
Track Severe Weather on mobile